createdAt,value
2022-09-15T14:05:29.116Z,99522.13
2022-09-15T14:08:03.581Z,99514.97
2022-09-15T14:10:35.914Z,99519.69
2022-09-15T14:13:02.674Z,99525.53
2022-09-15T14:15:29.373Z,99512.59
2022-09-15T14:17:56.593Z,99516.38
2022-09-15T14:20:31.673Z,99503.44
2022-09-15T14:22:59.453Z,99512.09
2022-09-15T14:25:28.809Z,99514.06
2022-09-15T14:27:55.929Z,99508.72
2022-09-15T14:30:31.051Z,99504.34
2022-09-15T14:33:01.144Z,99506.53
2022-09-15T14:35:36.272Z,99500.25
2022-09-15T14:38:03.101Z,99506.34
2022-09-15T14:40:38.040Z,99501.88
2022-09-15T14:43:23.181Z,99502.91
2022-09-15T14:45:55.375Z,99508.28
2022-09-15T14:48:27.427Z,99509.78
2022-09-15T14:51:02.286Z,99508.78
2022-09-15T14:53:31.857Z,99502.19
2022-09-15T14:56:08.306Z,99515.78
2022-09-15T14:58:46.397Z,99510.09
2022-09-15T15:01:24.645Z,99514.16
2022-09-15T15:04:20.611Z,99513.22
2022-09-15T15:07:02.139Z,99509.78
2022-09-15T15:09:33.758Z,99507.97
2022-09-15T15:12:13.666Z,99505.13
2022-09-15T15:14:41.811Z,99504.88
2022-09-15T15:17:27.021Z,99506.25
2022-09-15T15:20:15.359Z,99506.59
2022-09-15T15:22:43.595Z,99507.06
2022-09-15T15:25:29.341Z,99499.91
2022-09-15T15:27:57.552Z,99504.78
2022-09-15T15:30:26.010Z,99511.00
2022-09-15T15:32:53.459Z,99504.06
2022-09-15T15:35:20.532Z,99499.16
2022-09-15T15:37:47.277Z,99503.00
2022-09-15T15:40:17.871Z,99495.25
2022-09-15T15:43:01.473Z,99502.94
2022-09-15T15:45:32.020Z,99496.50
2022-09-15T15:48:00.359Z,99503.81
2022-09-15T15:50:27.634Z,99492.50
2022-09-15T15:52:55.266Z,99496.53
2022-09-15T15:55:24.639Z,99502.16
2022-09-15T15:57:53.189Z,99505.72
2022-09-15T16:00:24.489Z,99502.38
2022-09-15T16:02:52.425Z,99503.19
2022-09-15T16:05:21.473Z,99499.50
2022-09-15T16:07:50.544Z,99506.53
2022-09-15T16:10:20.263Z,99501.75
2022-09-15T16:12:47.422Z,99507.25
2022-09-15T16:15:17.341Z,99514.50
2022-09-15T16:17:46.696Z,99508.28
2022-09-15T16:20:15.267Z,99513.06
2022-09-15T16:22:42.124Z,99518.53
2022-09-15T16:25:38.215Z,99513.53
2022-09-15T16:28:04.870Z,99514.47
2022-09-15T16:30:32.333Z,99518.38
2022-09-15T16:32:59.027Z,99516.72
2022-09-15T16:35:39.029Z,99517.16
2022-09-15T16:38:06.632Z,99508.81
2022-09-15T16:40:33.911Z,99520.38
2022-09-15T16:43:00.196Z,99510.09
2022-09-15T16:45:38.252Z,99511.66
2022-09-15T16:48:08.176Z,99513.19
2022-09-15T16:50:34.867Z,99514.59
2022-09-15T16:53:01.418Z,99520.53
2022-09-15T16:55:41.991Z,99519.31
2022-09-15T16:58:08.186Z,99527.25
2022-09-15T17:00:36.205Z,99526.28
2022-09-15T17:03:03.829Z,99534.56
2022-09-15T17:05:39.998Z,99525.38
2022-09-15T17:08:08.751Z,99527.72
2022-09-15T17:10:35.577Z,99525.00
2022-09-15T17:13:02.407Z,99529.41
2022-09-15T17:15:34.954Z,99532.44
2022-09-15T17:18:01.989Z,99536.34
2022-09-15T17:20:28.598Z,99528.88
2022-09-15T17:22:57.140Z,99535.88
2022-09-15T17:25:26.295Z,99545.22
2022-09-15T17:27:53.510Z,99544.28
2022-09-15T17:30:25.039Z,99543.06
2022-09-15T17:32:51.506Z,99536.81
2022-09-15T17:35:22.322Z,99546.09
2022-09-15T17:37:49.322Z,99549.94
2022-09-15T17:40:17.154Z,99554.88
2022-09-15T17:42:44.372Z,99548.78
2022-09-15T17:45:27.656Z,99547.09
2022-09-15T17:47:53.865Z,99546.53
2022-09-15T17:50:22.468Z,99542.56
2022-09-15T17:52:49.646Z,99546.41
2022-09-15T17:55:15.912Z,99544.13
2022-09-15T17:57:42.365Z,99545.22
2022-09-15T18:00:11.104Z,99541.94
2022-09-15T18:02:42.488Z,99554.16
2022-09-15T18:05:19.919Z,99553.53
2022-09-15T18:07:46.618Z,99559.47
2022-09-15T18:10:15.296Z,99569.97
2022-09-15T18:12:44.162Z,99564.16
2022-09-15T18:15:18.093Z,99567.75
2022-09-15T18:17:45.647Z,99569.03
2022-09-15T18:20:14.416Z,99570.09
2022-09-15T18:22:41.934Z,99568.84
2022-09-15T18:25:16.152Z,99566.56
2022-09-15T18:27:43.040Z,99563.38
2022-09-15T18:30:10.859Z,99574.13
2022-09-15T18:32:38.864Z,99571.03
2022-09-15T18:35:06.203Z,99572.31
2022-09-15T18:37:32.508Z,99570.81
2022-09-15T18:39:58.874Z,99569.13
2022-09-15T18:42:28.480Z,99579.22
2022-09-15T18:44:57.580Z,99578.19
2022-09-15T18:47:24.043Z,99574.59
2022-09-15T18:49:50.679Z,99575.41
2022-09-15T18:52:17.207Z,99577.28
2022-09-15T18:54:43.963Z,99584.00
2022-09-15T18:57:10.776Z,99575.16
2022-09-15T18:59:38.562Z,99577.47
2022-09-15T19:02:05.757Z,99582.91
2022-09-15T19:04:36.114Z,99578.25
2022-09-15T19:07:04.965Z,99589.19
2022-09-15T19:09:31.393Z,99580.16
2022-09-15T19:11:57.991Z,99582.69
2022-09-15T19:14:27.061Z,99582.88
2022-09-15T19:16:58.187Z,99580.56
2022-09-15T19:19:25.602Z,99587.91
2022-09-15T19:21:51.973Z,99581.81
2022-09-15T19:24:18.381Z,99589.56
2022-09-15T19:26:46.243Z,99580.09
2022-09-15T19:29:14.827Z,99586.41
2022-09-15T19:31:42.229Z,99579.91
2022-09-15T19:34:09.712Z,99581.53
2022-09-15T19:36:36.336Z,99577.13
2022-09-15T19:39:03.274Z,99580.66
2022-09-15T19:41:30.485Z,99591.63
2022-09-15T19:43:56.942Z,99590.34
2022-09-15T19:46:24.611Z,99589.31
2022-09-15T19:48:52.709Z,99582.78
2022-09-15T19:51:19.875Z,99588.25
2022-09-15T19:53:46.945Z,99582.78
2022-09-15T19:56:21.608Z,99590.38
2022-09-15T19:58:48.964Z,99597.97
2022-09-15T20:01:15.472Z,99610.97
2022-09-15T20:03:43.506Z,99610.59
2022-09-15T20:06:10.006Z,99614.41
2022-09-15T20:08:37.585Z,99618.63
2022-09-15T20:11:08.451Z,99624.72
2022-09-15T20:13:38.672Z,99616.53
2022-09-15T20:16:05.449Z,99618.59
2022-09-15T20:18:32.871Z,99628.06
2022-09-15T20:21:02.161Z,99620.28
2022-09-15T20:23:28.559Z,99613.75
2022-09-15T20:26:00.407Z,99622.41
2022-09-15T20:28:27.918Z,99624.75
2022-09-15T20:31:18.710Z,99626.84
2022-09-15T20:33:46.288Z,99624.75
2022-09-15T20:36:18.967Z,99622.88
2022-09-15T20:38:46.899Z,99619.31
2022-09-15T20:41:15.082Z,99613.91
2022-09-15T20:43:42.462Z,99623.41
2022-09-15T20:46:12.091Z,99625.53
2022-09-15T20:48:38.940Z,99624.28
2022-09-15T20:51:17.208Z,99623.88
2022-09-15T20:53:46.546Z,99612.53
2022-09-15T20:56:15.072Z,99623.69
2022-09-15T20:58:41.797Z,99620.13
2022-09-15T21:01:17.725Z,99618.03
2022-09-15T21:03:45.250Z,99617.44
2022-09-15T21:06:17.701Z,99617.00
2022-09-15T21:08:46.972Z,99618.91
2022-09-15T21:11:15.179Z,99612.19
2022-09-15T21:13:42.678Z,99623.13
2022-09-15T21:16:13.414Z,99634.47
2022-09-15T21:18:41.759Z,99640.75
2022-09-15T21:21:12.351Z,99642.03
2022-09-15T21:23:50.478Z,99640.56
2022-09-15T21:26:18.879Z,99634.66
2022-09-15T21:28:45.991Z,99631.94
2022-09-15T21:31:17.130Z,99638.66
2022-09-15T21:33:45.503Z,99626.47
2022-09-15T21:36:19.002Z,99627.72
2022-09-15T21:38:46.003Z,99629.84
2022-09-15T21:41:15.834Z,99636.13
2022-09-15T21:43:45.561Z,99632.97
2022-09-15T21:46:14.758Z,99631.94
2022-09-15T21:48:41.694Z,99633.00
2022-09-15T21:51:11.091Z,99631.53
2022-09-15T21:53:37.873Z,99633.19
2022-09-15T21:56:08.325Z,99640.97
2022-09-15T21:58:41.737Z,99640.13
2022-09-15T22:01:14.223Z,99642.84
2022-09-15T22:03:41.628Z,99644.13
2022-09-15T22:06:11.857Z,99644.53
2022-09-15T22:08:39.158Z,99646.63
2022-09-15T22:11:06.951Z,99642.22
2022-09-15T22:13:35.793Z,99638.22
2022-09-15T22:16:06.256Z,99644.50
2022-09-15T22:18:36.218Z,99645.34
2022-09-15T22:21:10.795Z,99645.97
2022-09-15T22:23:37.974Z,99653.31
2022-09-15T22:26:07.047Z,99642.59
2022-09-15T22:28:33.729Z,99649.09
2022-09-15T22:31:02.070Z,99651.59
2022-09-15T22:33:29.169Z,99647.19
2022-09-15T22:35:58.675Z,99652.22
2022-09-15T22:38:27.930Z,99645.53
2022-09-15T22:40:54.618Z,99646.56
2022-09-15T22:43:21.236Z,99649.91
2022-09-15T22:45:47.836Z,99646.94
2022-09-15T22:48:14.176Z,99653.84
2022-09-15T22:50:43.386Z,99656.97
2022-09-15T22:53:12.212Z,99660.56
2022-09-15T22:55:39.011Z,99659.28
2022-09-15T22:58:05.647Z,99653.16
2022-09-15T23:00:32.287Z,99659.88
2022-09-15T23:02:59.319Z,99652.09
2022-09-15T23:05:25.588Z,99659.44
2022-09-15T23:07:51.772Z,99653.97
2022-09-15T23:10:18.118Z,99642.63
2022-09-15T23:12:44.273Z,99661.28
2022-09-15T23:15:11.015Z,99652.28
2022-09-15T23:17:38.345Z,99650.38
2022-09-15T23:20:05.041Z,99661.06
2022-09-15T23:22:31.283Z,99663.78
2022-09-15T23:24:57.630Z,99655.81
2022-09-15T23:27:23.862Z,99659.78
2022-09-15T23:29:50.025Z,99671.09
2022-09-15T23:32:16.473Z,99671.09
2022-09-15T23:34:42.859Z,99673.59
2022-09-15T23:37:08.990Z,99663.09
2022-09-15T23:39:35.316Z,99670.44
2022-09-15T23:42:01.562Z,99676.47
2022-09-15T23:44:27.744Z,99674.41
2022-09-15T23:46:54.210Z,99678.81
2022-09-15T23:49:20.451Z,99669.72
2022-09-15T23:51:46.607Z,99682.31
2022-09-15T23:54:13.031Z,99678.94
2022-09-15T23:56:39.157Z,99685.44
2022-09-15T23:59:05.264Z,99672.22
